createdAt,value
2022-08-22T00:01:07.723Z,7.03
2022-08-22T00:02:42.423Z,6.05
2022-08-22T00:03:47.403Z,6.95
2022-08-22T00:06:20.436Z,7.80
2022-08-22T00:09:19.125Z,11.50
2022-08-22T00:11:58.020Z,9.32
2022-08-22T00:14:35.132Z,7.35
2022-08-22T00:17:11.836Z,7.90
2022-08-22T00:20:13.287Z,8.00
2022-08-22T00:22:44.648Z,8.63
2022-08-22T00:25:32.231Z,8.63
2022-08-22T00:28:20.829Z,7.70
2022-08-22T00:30:58.016Z,7.72
2022-08-22T00:33:53.591Z,8.37
2022-08-22T00:36:56.571Z,7.18
2022-08-22T00:39:55.425Z,8.45
2022-08-22T00:43:00.440Z,9.15
2022-08-22T00:46:05.685Z,6.32
2022-08-22T00:48:39.217Z,8.70
2022-08-22T00:51:27.957Z,10.43
2022-08-22T00:54:34.223Z,8.68
2022-08-22T00:57:16.092Z,9.20
2022-08-22T00:59:58.745Z,10.30
2022-08-22T01:02:54.592Z,7.03
2022-08-22T01:05:46.026Z,9.45
2022-08-22T01:08:35.049Z,8.73
2022-08-22T01:11:50.771Z,9.75
2022-08-22T01:14:35.128Z,7.97
2022-08-22T01:17:05.719Z,6.53
2022-08-22T01:20:10.715Z,7.68
2022-08-22T01:23:15.487Z,7.47
2022-08-22T01:26:10.213Z,7.07
2022-08-22T01:28:58.109Z,6.15
2022-08-22T01:31:34.756Z,6.83
2022-08-22T01:34:27.571Z,6.82
2022-08-22T01:37:15.791Z,7.70
2022-08-22T01:40:08.392Z,7.85
2022-08-22T01:43:02.364Z,8.48
2022-08-22T01:46:08.179Z,9.17
2022-08-22T01:48:42.098Z,8.77
2022-08-22T01:51:28.496Z,6.95
2022-08-22T01:54:05.839Z,8.07
2022-08-22T01:56:40.001Z,8.98
2022-08-22T01:59:33.849Z,9.60
2022-08-22T02:02:04.689Z,7.95
2022-08-22T02:04:41.200Z,7.75
2022-08-22T02:07:14.518Z,9.88
2022-08-22T02:10:02.797Z,8.93
2022-08-22T02:12:41.873Z,8.47
2022-08-22T02:15:22.900Z,8.48
2022-08-22T02:17:50.500Z,8.13
2022-08-22T02:20:27.924Z,7.90
2022-08-22T02:23:04.654Z,6.22
2022-08-22T02:25:46.461Z,7.03
2022-08-22T02:28:29.741Z,10.38
2022-08-22T02:31:04.598Z,6.15
2022-08-22T02:33:38.017Z,13.30
2022-08-22T02:36:24.823Z,11.88
2022-08-22T02:39:18.849Z,9.47
2022-08-22T02:41:53.700Z,7.13
2022-08-22T02:44:28.860Z,8.07
2022-08-22T02:47:03.199Z,9.13
2022-08-22T02:49:43.606Z,9.23
2022-08-22T02:52:24.620Z,7.70
2022-08-22T02:55:07.443Z,9.27
2022-08-22T02:57:52.754Z,6.25
2022-08-22T03:00:30.749Z,9.35
2022-08-22T03:03:16.317Z,6.95
2022-08-22T03:05:49.102Z,6.30
2022-08-22T03:08:33.830Z,8.63
2022-08-22T03:11:26.909Z,7.80
2022-08-22T03:14:06.241Z,5.15
2022-08-22T03:16:52.832Z,6.22
2022-08-22T03:19:29.625Z,7.53
2022-08-22T03:22:07.207Z,12.93
2022-08-22T03:25:02.061Z,7.00
2022-08-22T03:27:39.476Z,6.97
2022-08-22T03:30:16.901Z,5.85
2022-08-22T03:32:49.205Z,8.40
2022-08-22T03:35:35.097Z,10.45
2022-08-22T03:38:14.987Z,10.00
2022-08-22T03:41:12.887Z,9.50
2022-08-22T03:44:05.395Z,9.10
2022-08-22T03:47:08.105Z,6.60
2022-08-22T03:50:30.513Z,7.45
2022-08-22T03:53:24.989Z,8.25
2022-08-22T03:56:29.599Z,6.65
2022-08-22T03:59:12.401Z,6.80
2022-08-22T04:02:43.182Z,6.23
2022-08-22T04:05:29.735Z,10.43
2022-08-22T04:08:15.449Z,6.25
2022-08-22T04:11:11.640Z,4.95
2022-08-22T04:14:03.642Z,7.00
2022-08-22T04:16:49.387Z,5.30
2022-08-22T04:19:29.863Z,6.82
2022-08-22T04:22:35.687Z,7.93
2022-08-22T04:25:15.368Z,5.75
2022-08-22T04:28:00.788Z,6.85
2022-08-22T04:30:35.468Z,7.70
2022-08-22T04:33:12.530Z,6.28
2022-08-22T04:35:58.482Z,9.73
2022-08-22T04:38:38.300Z,7.65
2022-08-22T04:41:18.621Z,7.45
2022-08-22T04:43:57.106Z,9.70
2022-08-22T04:46:46.478Z,6.10
2022-08-22T04:49:24.744Z,4.85
2022-08-22T04:52:15.624Z,6.45
2022-08-22T04:54:56.618Z,6.70
2022-08-22T04:57:45.501Z,6.30
2022-08-22T05:00:16.029Z,4.63
2022-08-22T05:02:49.856Z,6.00
2022-08-22T05:05:23.650Z,4.78
2022-08-22T05:07:56.322Z,7.03
2022-08-22T05:10:33.520Z,7.17
2022-08-22T05:13:12.420Z,5.68
2022-08-22T05:15:46.036Z,5.93
2022-08-22T05:18:19.582Z,5.88
2022-08-22T05:20:51.069Z,5.88
2022-08-22T05:23:29.198Z,7.30
2022-08-22T05:26:02.709Z,10.90
2022-08-22T05:28:35.545Z,11.13
2022-08-22T05:31:12.714Z,6.80
2022-08-22T05:33:49.133Z,6.30
2022-08-22T05:36:23.297Z,8.20
2022-08-22T05:38:56.791Z,10.55
2022-08-22T05:41:29.019Z,8.18
2022-08-22T05:43:56.665Z,6.88
2022-08-22T05:46:44.294Z,8.48
2022-08-22T05:49:19.336Z,10.83
2022-08-22T05:52:24.921Z,5.90
2022-08-22T05:55:17.435Z,10.25
2022-08-22T05:57:50.922Z,8.10
2022-08-22T06:00:22.535Z,8.05
2022-08-22T06:03:12.391Z,9.67
2022-08-22T06:05:45.284Z,9.60
2022-08-22T06:08:58.573Z,9.60
2022-08-22T06:11:43.013Z,6.70
2022-08-22T06:14:25.496Z,8.57
2022-08-22T06:17:10.490Z,8.27
2022-08-22T06:19:45.099Z,7.28
2022-08-22T06:22:25.978Z,5.90
2022-08-22T06:25:01.038Z,7.75
2022-08-22T06:27:31.187Z,7.30
2022-08-22T06:30:03.037Z,8.70
2022-08-22T06:32:58.921Z,8.15
2022-08-22T06:35:53.833Z,7.53
2022-08-22T06:38:28.532Z,7.45
2022-08-22T06:40:58.635Z,8.20
2022-08-22T06:43:27.025Z,5.77
2022-08-22T06:45:54.823Z,6.28
2022-08-22T06:48:24.337Z,7.53
2022-08-22T06:50:57.148Z,9.57
2022-08-22T06:53:47.864Z,7.90
2022-08-22T06:56:30.318Z,8.43
2022-08-22T06:59:01.661Z,6.47
2022-08-22T07:01:36.207Z,7.70
2022-08-22T07:04:09.489Z,7.15
2022-08-22T07:06:41.623Z,9.68
2022-08-22T07:09:27.877Z,12.43
2022-08-22T07:12:00.404Z,8.35
2022-08-22T07:14:33.210Z,9.85
2022-08-22T07:17:04.564Z,8.73
2022-08-22T07:19:38.501Z,8.10
2022-08-22T07:22:16.209Z,8.37
2022-08-22T07:24:48.625Z,6.90
2022-08-22T07:27:31.923Z,9.07
2022-08-22T07:30:10.143Z,7.28
2022-08-22T07:32:43.274Z,6.07
2022-08-22T07:35:35.825Z,8.40
2022-08-22T07:38:18.955Z,9.43
2022-08-22T07:41:20.155Z,7.50
2022-08-22T07:44:11.121Z,10.75
2022-08-22T07:47:00.871Z,8.10
2022-08-22T07:49:52.961Z,8.10
2022-08-22T07:52:22.359Z,7.45
2022-08-22T07:54:59.829Z,9.98
2022-08-22T07:57:34.559Z,10.38
2022-08-22T08:00:11.751Z,8.82
2022-08-22T08:02:46.359Z,12.43
2022-08-22T08:05:15.368Z,10.27
2022-08-22T08:07:45.610Z,9.68
2022-08-22T08:10:19.447Z,7.85
2022-08-22T08:13:02.478Z,5.97
2022-08-22T08:15:33.922Z,7.47
2022-08-22T08:18:10.516Z,10.75
2022-08-22T08:20:38.632Z,9.02
2022-08-22T08:23:10.102Z,7.47
2022-08-22T08:26:00.529Z,7.43
2022-08-22T08:28:34.836Z,8.90
2022-08-22T08:31:08.824Z,10.68
2022-08-22T08:33:40.752Z,5.22
2022-08-22T08:36:26.476Z,8.93
2022-08-22T08:39:14.079Z,10.38
2022-08-22T08:41:44.576Z,8.20
2022-08-22T08:44:54.341Z,7.97
2022-08-22T08:47:31.385Z,6.95
2022-08-22T08:50:24.183Z,7.15
2022-08-22T08:53:25.415Z,9.15
2022-08-22T08:56:34.463Z,7.43
2022-08-22T08:59:24.770Z,7.32
2022-08-22T09:01:53.371Z,8.60
2022-08-22T09:04:37.337Z,11.32
2022-08-22T09:07:16.907Z,8.05
2022-08-22T09:10:02.978Z,7.17
2022-08-22T09:12:55.995Z,10.07
2022-08-22T09:15:40.776Z,9.88
2022-08-22T09:18:46.082Z,7.72
2022-08-22T09:22:01.893Z,9.57
2022-08-22T09:25:00.543Z,8.50
2022-08-22T09:27:36.042Z,10.80
2022-08-22T09:30:11.749Z,7.60
2022-08-22T09:32:48.672Z,7.18
2022-08-22T09:35:28.161Z,8.88
2022-08-22T09:38:23.857Z,6.27
2022-08-22T09:41:12.713Z,6.72
2022-08-22T09:44:06.490Z,7.72
2022-08-22T09:46:55.364Z,7.70
2022-08-22T09:49:32.889Z,5.45
2022-08-22T09:52:33.097Z,7.93
2022-08-22T09:55:11.804Z,8.95
2022-08-22T09:58:03.404Z,7.07
2022-08-22T10:00:54.958Z,9.80
2022-08-22T10:03:41.463Z,9.25
2022-08-22T10:06:20.205Z,9.73
2022-08-22T10:08:56.050Z,9.20
2022-08-22T10:11:42.312Z,6.22
2022-08-22T10:14:22.381Z,9.55
2022-08-22T10:17:29.917Z,7.00
2022-08-22T10:20:10.289Z,7.37
2022-08-22T10:23:17.229Z,8.73
2022-08-22T10:25:52.874Z,5.68
2022-08-22T10:28:49.748Z,3.72
2022-08-22T10:31:30.757Z,3.33
2022-08-22T10:34:25.123Z,4.33
2022-08-22T10:37:36.651Z,4.25
2022-08-22T10:40:19.339Z,3.22
2022-08-22T10:43:16.137Z,3.85
2022-08-22T10:45:48.493Z,6.70
2022-08-22T10:48:25.883Z,5.43
2022-08-22T10:51:03.266Z,5.57
2022-08-22T10:56:55.955Z,6.07
2022-08-22T10:59:48.183Z,4.95
2022-08-22T11:02:42.224Z,6.20
2022-08-22T11:05:28.170Z,3.97
2022-08-22T11:08:13.761Z,5.47
2022-08-22T11:11:17.579Z,3.95
2022-08-22T11:14:24.403Z,3.53
2022-08-22T11:17:11.993Z,3.53
2022-08-22T11:20:28.209Z,4.70
2022-08-22T11:23:12.325Z,5.15
2022-08-22T11:25:43.733Z,7.18
2022-08-22T11:28:45.145Z,3.78
2022-08-22T11:31:47.268Z,4.07
2022-08-22T11:34:44.803Z,4.53
2022-08-22T11:37:43.499Z,3.42
2022-08-22T11:40:22.800Z,4.70
2022-08-22T11:42:59.181Z,5.53
2022-08-22T11:45:44.423Z,6.40
2022-08-22T11:48:25.350Z,7.13
2022-08-22T11:50:58.789Z,5.47
2022-08-22T11:53:32.443Z,5.90
2022-08-22T11:56:18.713Z,5.00
2022-08-22T11:59:15.728Z,4.77
2022-08-22T12:01:52.739Z,5.80
2022-08-22T12:04:28.760Z,7.05
2022-08-22T12:07:12.528Z,5.15
2022-08-22T12:09:47.806Z,4.13
2022-08-22T12:12:27.999Z,6.87
2022-08-22T12:15:03.283Z,5.57
2022-08-22T12:18:08.917Z,6.43
2022-08-22T12:20:45.307Z,7.20
2022-08-22T12:23:30.384Z,5.25
2022-08-22T12:26:23.604Z,4.10
2022-08-22T12:29:15.597Z,4.55
2022-08-22T12:32:27.466Z,7.50
2022-08-22T12:34:55.400Z,6.40
2022-08-22T12:37:52.805Z,5.45
2022-08-22T12:40:48.189Z,5.10
2022-08-22T12:43:19.655Z,4.38
2022-08-22T12:46:31.422Z,3.88
2022-08-22T12:49:29.339Z,6.03
2022-08-22T12:51:59.829Z,4.72
2022-08-22T12:54:50.355Z,7.10
2022-08-22T12:57:36.368Z,6.47
2022-08-22T13:00:27.003Z,4.15
2022-08-22T13:03:01.772Z,5.32
2022-08-22T13:05:34.314Z,4.38
2022-08-22T13:08:31.551Z,4.60
2022-08-22T13:11:09.952Z,4.70
2022-08-22T13:13:56.808Z,5.07
2022-08-22T13:16:34.723Z,4.80
2022-08-22T13:19:13.701Z,6.20
2022-08-22T13:22:07.025Z,5.37
2022-08-22T13:24:41.921Z,4.35
2022-08-22T13:27:50.999Z,7.55
2022-08-22T13:30:32.464Z,7.03
2022-08-22T13:33:09.801Z,5.38
2022-08-22T13:35:52.161Z,4.03
2022-08-22T13:38:46.307Z,6.15
2022-08-22T13:41:26.269Z,5.43
2022-08-22T13:44:09.995Z,6.60
2022-08-22T13:46:52.736Z,5.63
2022-08-22T13:49:35.202Z,8.23
2022-08-22T13:52:29.974Z,8.30
2022-08-22T13:55:12.606Z,6.38
2022-08-22T13:57:46.171Z,5.97
2022-08-22T14:00:29.265Z,6.60
2022-08-22T14:03:01.411Z,6.27
2022-08-22T14:05:39.619Z,7.60
2022-08-22T14:08:18.394Z,6.25
2022-08-22T14:10:58.020Z,6.60
2022-08-22T14:13:36.723Z,6.35
2022-08-22T14:16:10.364Z,5.40
2022-08-22T14:18:45.566Z,7.20
2022-08-22T14:21:40.669Z,6.15
2022-08-22T14:24:27.169Z,6.55
2022-08-22T14:27:05.707Z,4.75
2022-08-22T14:29:50.117Z,6.50
2022-08-22T14:32:23.030Z,5.85
2022-08-22T14:35:23.309Z,5.47
2022-08-22T14:38:27.283Z,5.88
2022-08-22T14:41:04.031Z,6.95
2022-08-22T14:43:32.994Z,5.53
2022-08-22T14:46:08.663Z,4.55
2022-08-22T14:48:42.483Z,5.60
2022-08-22T14:51:21.304Z,6.10
2022-08-22T14:53:50.198Z,7.95
2022-08-22T14:56:29.784Z,7.77
2022-08-22T14:59:06.632Z,7.03
2022-08-22T15:01:53.139Z,6.13
2022-08-22T15:04:49.840Z,5.25
2022-08-22T15:07:28.363Z,7.05
2022-08-22T15:10:33.226Z,5.63
2022-08-22T15:13:07.988Z,4.55
2022-08-22T15:15:54.988Z,6.28
2022-08-22T15:18:23.567Z,6.97
2022-08-22T15:21:08.673Z,4.32
2022-08-22T15:23:45.282Z,3.60
2022-08-22T15:26:20.918Z,4.80
2022-08-22T15:28:57.230Z,4.50
2022-08-22T15:31:25.569Z,5.88
2022-08-22T15:34:06.850Z,6.63
2022-08-22T15:36:34.691Z,6.27
2022-08-22T15:39:34.883Z,6.32
2022-08-22T15:42:05.777Z,6.15
2022-08-22T15:44:40.615Z,6.97
2022-08-22T15:47:31.551Z,6.38
2022-08-22T15:50:10.495Z,4.97
2022-08-22T15:53:07.058Z,5.93
2022-08-22T15:55:35.581Z,7.05
2022-08-22T15:58:20.836Z,6.40
2022-08-22T16:01:09.970Z,7.47
2022-08-22T16:04:14.430Z,5.60
2022-08-22T16:06:55.229Z,7.10
2022-08-22T16:09:46.301Z,9.90
2022-08-22T16:12:29.654Z,7.10
2022-08-22T16:14:59.031Z,7.65
2022-08-22T16:17:29.644Z,8.57
2022-08-22T16:20:19.930Z,5.82
2022-08-22T16:22:56.780Z,6.45
2022-08-22T16:25:44.619Z,7.15
2022-08-22T16:28:36.132Z,7.85
2022-08-22T16:31:35.729Z,6.10
2022-08-22T16:34:18.669Z,6.88
2022-08-22T16:37:21.601Z,6.45
2022-08-22T16:40:01.726Z,6.20
2022-08-22T16:42:39.216Z,6.43
2022-08-22T16:45:39.499Z,5.30
2022-08-22T16:48:39.574Z,5.18
2022-08-22T16:51:18.563Z,7.07
2022-08-22T16:54:07.393Z,5.95
2022-08-22T16:57:15.488Z,7.28
2022-08-22T17:00:05.017Z,6.77
2022-08-22T17:03:06.366Z,8.07
2022-08-22T17:05:55.812Z,7.10
2022-08-22T17:08:41.900Z,8.35
2022-08-22T17:11:56.180Z,9.68
2022-08-22T17:14:56.674Z,8.10
2022-08-22T17:17:59.870Z,9.70
2022-08-22T17:20:49.688Z,7.80
2022-08-22T17:23:38.877Z,8.60
2022-08-22T17:26:27.543Z,8.38
2022-08-22T17:29:53.801Z,8.20
2022-08-22T17:32:46.701Z,8.93
2022-08-22T17:35:40.272Z,7.68
2022-08-22T17:38:13.593Z,6.97
2022-08-22T17:40:53.468Z,7.25
2022-08-22T17:43:39.976Z,6.77
2022-08-22T17:46:41.483Z,8.45
2022-08-22T17:49:32.763Z,7.80
2022-08-22T17:52:00.341Z,6.15
2022-08-22T17:54:45.964Z,7.60
2022-08-22T17:57:33.448Z,6.53
2022-08-22T18:00:13.269Z,7.50
2022-08-22T18:03:08.988Z,8.10
2022-08-22T18:05:47.179Z,6.55
2022-08-22T18:09:13.305Z,6.28
2022-08-22T18:11:44.784Z,7.23
2022-08-22T18:14:21.441Z,7.38
2022-08-22T18:16:52.409Z,6.78
2022-08-22T18:19:55.609Z,7.45
2022-08-22T18:22:41.617Z,6.35
2022-08-22T18:25:18.283Z,8.80
2022-08-22T18:27:54.436Z,7.63
2022-08-22T18:30:23.835Z,8.15
2022-08-22T18:33:01.774Z,8.73
2022-08-22T18:35:59.116Z,6.20
2022-08-22T18:38:35.544Z,6.30
2022-08-22T18:41:13.339Z,6.95
2022-08-22T18:43:48.192Z,7.30
2022-08-22T18:46:37.594Z,6.85
2022-08-22T18:49:25.028Z,5.68
2022-08-22T18:52:13.816Z,7.37
2022-08-22T18:55:06.082Z,7.88
2022-08-22T18:57:52.493Z,6.50
2022-08-22T19:00:40.506Z,8.15
2022-08-22T19:03:17.058Z,7.47
2022-08-22T19:06:01.129Z,8.10
2022-08-22T19:08:38.689Z,6.57
2022-08-22T19:11:19.889Z,8.45
2022-08-22T19:13:54.821Z,8.00
2022-08-22T19:16:28.388Z,7.10
2022-08-22T19:19:01.633Z,7.83
2022-08-22T19:21:47.605Z,7.80
2022-08-22T19:24:27.391Z,9.00
2022-08-22T19:27:07.059Z,9.35
2022-08-22T19:29:34.604Z,8.52
2022-08-22T19:32:12.916Z,8.00
2022-08-22T19:34:47.649Z,7.47
2022-08-22T19:37:30.801Z,7.13
2022-08-22T19:40:10.118Z,10.45
2022-08-22T19:42:44.193Z,6.90
2022-08-22T19:45:27.246Z,7.13
2022-08-22T19:48:01.402Z,7.05
2022-08-22T19:50:34.221Z,8.05
2022-08-22T19:53:31.192Z,7.93
2022-08-22T19:56:21.761Z,9.05
2022-08-22T19:59:07.360Z,8.10
2022-08-22T20:01:56.258Z,8.93
2022-08-22T20:04:36.100Z,12.45
2022-08-22T20:07:15.346Z,8.60
2022-08-22T20:10:01.716Z,10.52
2022-08-22T20:12:29.273Z,9.07
2022-08-22T20:14:57.184Z,10.30
2022-08-22T20:17:24.761Z,10.05
2022-08-22T20:22:52.891Z,11.80
2022-08-22T20:25:41.842Z,10.23
2022-08-22T20:28:30.639Z,8.85
2022-08-22T20:31:01.116Z,10.25
2022-08-22T20:33:36.943Z,10.38
2022-08-22T20:36:28.005Z,9.60
2022-08-22T20:39:02.653Z,9.97
2022-08-22T20:41:40.527Z,10.55
2022-08-22T20:44:18.419Z,10.13
2022-08-22T20:46:46.285Z,10.88
2022-08-22T20:49:20.369Z,11.73
2022-08-22T20:51:54.561Z,8.10
2022-08-22T20:54:24.898Z,8.60
2022-08-22T20:56:55.192Z,9.43
2022-08-22T20:59:29.769Z,8.82
2022-08-22T21:02:04.862Z,10.05
2022-08-22T21:04:57.640Z,9.63
2022-08-22T21:07:35.026Z,9.02
2022-08-22T21:10:27.863Z,9.98
2022-08-22T21:13:11.063Z,10.75
2022-08-22T21:15:40.772Z,10.18
2022-08-22T21:18:11.766Z,10.73
2022-08-22T21:20:40.406Z,10.38
2022-08-22T21:23:13.848Z,13.50
2022-08-22T21:25:59.204Z,12.70
2022-08-22T21:28:40.672Z,14.13
2022-08-22T21:31:14.863Z,11.60
2022-08-22T21:33:45.683Z,12.07
2022-08-22T21:36:21.169Z,11.52
2022-08-22T21:39:01.119Z,13.13
2022-08-22T21:41:39.682Z,15.98
2022-08-22T21:44:37.740Z,11.50
2022-08-22T21:47:31.290Z,14.48
2022-08-22T21:50:09.774Z,13.70
2022-08-22T21:52:44.193Z,13.88
2022-08-22T21:55:36.557Z,15.40
2022-08-22T21:58:35.465Z,13.10
2022-08-22T22:01:29.144Z,13.00
2022-08-22T22:04:00.208Z,14.15
2022-08-22T22:06:27.847Z,15.73
2022-08-22T22:08:55.524Z,13.10
2022-08-22T22:11:23.140Z,14.00
2022-08-22T22:13:50.946Z,16.30
2022-08-22T22:16:25.583Z,13.75
2022-08-22T22:18:53.770Z,13.85
2022-08-22T22:21:21.502Z,13.65
2022-08-22T22:23:50.697Z,15.43
2022-08-22T22:26:18.876Z,14.15
2022-08-22T22:28:48.313Z,15.23
2022-08-22T22:31:18.818Z,15.65
2022-08-22T22:33:46.444Z,17.75
2022-08-22T22:36:21.275Z,18.73
2022-08-22T22:38:51.700Z,16.08
2022-08-22T22:41:23.457Z,17.80
2022-08-22T22:43:55.327Z,14.70
2022-08-22T22:46:23.981Z,15.32
2022-08-22T22:48:51.918Z,15.63
2022-08-22T22:51:19.876Z,17.80
2022-08-22T22:53:48.144Z,17.05
2022-08-22T22:56:21.266Z,17.77
2022-08-22T22:58:50.681Z,17.30
2022-08-22T23:01:27.285Z,17.93
2022-08-22T23:03:57.476Z,16.13
2022-08-22T23:06:27.792Z,18.90
2022-08-22T23:08:56.320Z,15.75
2022-08-22T23:11:27.964Z,15.93
2022-08-22T23:13:56.348Z,15.57
2022-08-22T23:16:28.003Z,18.02
2022-08-22T23:18:56.432Z,18.00
2022-08-22T23:21:27.064Z,18.90
2022-08-22T23:23:59.808Z,18.25
2022-08-22T23:26:28.283Z,21.40
2022-08-22T23:28:56.553Z,16.50
2022-08-22T23:31:34.433Z,21.85
2022-08-22T23:34:06.304Z,21.92
2022-08-22T23:36:34.583Z,20.60
2022-08-22T23:39:02.837Z,20.07
2022-08-22T23:41:30.459Z,20.50
2022-08-22T23:43:58.322Z,24.90
2022-08-22T23:46:27.191Z,23.02
2022-08-22T23:48:55.087Z,26.30
2022-08-22T23:51:24.937Z,23.00
2022-08-22T23:53:53.617Z,23.02
2022-08-22T23:56:25.486Z,23.40
2022-08-22T23:58:53.460Z,25.10
